Time,TemperatureF,DewpointF,PressureIn,WindDirection,WindDirectionDegrees,WindSpeedMPH,WindSpeedGustMPH,Humidity,HourlyPrecipIn,Conditions,Clouds,dailyrainin,SoftwareType,DateUTC
2013-01-13 00:22:00,-3.0,-10.0,30.43,North,-999,0.0,0.0,72,0.00,,,-99.99,,2013-01-13 08:22:00,
2013-01-13 00:32:00,-3.0,-10.0,30.43,North,-999,0.0,0.0,72,0.00,,,-99.99,,2013-01-13 08:32:00,
2013-01-13 01:22:00,-4.0,-11.0,30.45,North,-999,0.0,0.0,71,0.00,,,-99.99,,2013-01-13 09:22:00,
2013-01-13 01:32:00,-4.0,-11.0,30.45,North,-999,0.0,0.0,71,0.00,,,-99.99,,2013-01-13 09:32:00,
2013-01-13 02:22:00,-4.0,-11.0,30.45,North,-999,0.0,0.0,71,0.10,,,-99.99,,2013-01-13 10:22:00,
2013-01-13 02:32:00,-4.0,-11.0,30.45,North,-999,0.0,0.0,71,0.10,,,-99.99,,2013-01-13 10:32:00,
2013-01-13 02:42:00,-4.0,-11.0,30.45,North,-999,0.0,0.0,71,0.10,,,-99.99,,2013-01-13 10:42:00,
2013-01-13 03:22:00,-4.0,-11.0,30.45,North,0,0.0,1.0,71,0.00,,,-99.99,,2013-01-13 11:22:00,
2013-01-13 03:32:00,-4.0,-11.0,30.45,North,0,0.0,1.0,71,0.00,,,-99.99,,2013-01-13 11:32:00,
2013-01-13 03:42:00,-4.0,-11.0,30.45,North,0,0.0,1.0,71,0.00,,,-99.99,,2013-01-13 11:42:00,
2013-01-13 04:22:00,-5.0,-12.0,30.47,North,-999,0.0,0.0,71,0.00,,,-99.99,,2013-01-13 12:22:00,
2013-01-13 04:32:00,-5.0,-12.0,30.47,North,-999,0.0,0.0,71,0.00,,,-99.99,,2013-01-13 12:32:00,
2013-01-13 04:42:00,-5.0,-12.0,30.47,North,-999,0.0,0.0,71,0.00,,,-99.99,,2013-01-13 12:42:00,
2013-01-13 05:22:00,-6.0,-13.0,30.52,North,-999,0.0,0.0,71,0.10,,,-99.99,,2013-01-13 13:22:00,
2013-01-13 06:22:00,-6.0,-13.0,30.60,North,-999,0.0,0.0,70,0.06,,,-99.99,,2013-01-13 14:22:00,
2013-01-13 07:22:00,-7.0,-14.0,30.63,North,-999,0.0,0.0,70,0.14,,,-99.99,,2013-01-13 15:22:00,
2013-01-13 07:33:00,-7.0,-14.0,30.63,North,-999,0.0,0.0,70,0.14,,,-99.99,,2013-01-13 15:33:00,
2013-01-13 08:22:00,-6.0,-13.0,30.66,NE,40,1.0,2.0,69,3.58,,,-99.99,,2013-01-13 16:22:00,
2013-01-13 08:33:00,-6.0,-13.0,30.66,NE,40,1.0,2.0,69,3.58,,,-99.99,,2013-01-13 16:33:00,
2013-01-13 09:33:00,6.0,-2.0,30.55,North,-999,0.0,0.0,70,10.80,,,-99.99,,2013-01-13 17:33:00,
2013-01-13 10:22:00,18.0,3.0,30.45,North,0,0.0,1.0,52,11.71,,,-99.99,,2013-01-13 18:22:00,
2013-01-13 10:32:00,18.0,3.0,30.45,North,0,0.0,1.0,52,11.71,,,-99.99,,2013-01-13 18:32:00,
2013-01-13 10:42:00,18.0,3.0,30.45,North,0,0.0,1.0,52,11.71,,,-99.99,,2013-01-13 18:42:00,
2013-01-13 11:22:00,26.0,-7.0,30.38,NW,320,3.0,7.0,23,12.09,,,-99.99,,2013-01-13 19:22:00,
2013-01-13 11:33:00,26.0,-7.0,30.38,NW,320,3.0,7.0,23,12.09,,,-99.99,,2013-01-13 19:33:00,
2013-01-13 11:42:00,26.0,-7.0,30.38,NW,320,3.0,7.0,23,12.09,,,-99.99,,2013-01-13 19:42:00,
2013-01-13 12:22:00,27.0,-2.0,30.35,NNE,20,1.0,3.0,28,12.23,,,-99.99,,2013-01-13 20:22:00,
2013-01-13 12:32:00,27.0,-2.0,30.35,NNE,20,1.0,3.0,28,12.23,,,-99.99,,2013-01-13 20:32:00,
2013-01-13 12:43:00,27.0,-2.0,30.35,NNE,20,1.0,3.0,28,12.23,,,-99.99,,2013-01-13 20:43:00,
2013-01-13 13:23:00,28.0,-7.0,30.31,West,280,3.0,9.0,21,4.95,,,-99.99,,2013-01-13 21:23:00,
2013-01-13 13:32:00,28.0,-7.0,30.31,West,280,3.0,9.0,21,4.95,,,-99.99,,2013-01-13 21:32:00,
2013-01-13 13:42:00,28.0,-7.0,30.31,West,280,3.0,9.0,21,4.95,,,-99.99,,2013-01-13 21:42:00,
2013-01-13 14:22:00,24.0,0.0,30.34,NE,40,2.0,8.0,35,0.00,,,-99.99,,2013-01-13 22:22:00,
2013-01-13 14:33:00,24.0,0.0,30.34,NE,40,2.0,8.0,35,0.00,,,-99.99,,2013-01-13 22:33:00,
2013-01-13 14:42:00,24.0,0.0,30.34,NE,40,2.0,8.0,35,0.00,,,-99.99,,2013-01-13 22:42:00,
2013-01-13 15:22:00,21.0,0.0,30.41,NNE,30,3.0,7.0,39,9.58,,,-99.99,,2013-01-13 23:22:00,
2013-01-13 15:32:00,21.0,0.0,30.41,NNE,30,3.0,7.0,39,9.58,,,-99.99,,2013-01-13 23:32:00,
2013-01-13 15:42:00,21.0,0.0,30.41,NNE,30,3.0,7.0,39,9.58,,,-99.99,,2013-01-13 23:42:00,
2013-01-13 16:22:00,21.0,-1.0,30.39,North,0,0.0,3.0,38,0.00,,,-99.99,,2013-01-14 00:22:00,
2013-01-13 16:32:00,21.0,-1.0,30.39,North,0,0.0,3.0,38,0.00,,,-99.99,,2013-01-14 00:32:00,
2013-01-13 16:42:00,21.0,-1.0,30.39,North,0,0.0,3.0,38,0.00,,,-99.99,,2013-01-14 00:42:00,
2013-01-13 17:22:00,18.0,-1.0,30.45,NNE,30,3.0,8.0,42,0.00,,,-99.99,,2013-01-14 01:22:00,
2013-01-13 17:32:00,18.0,-1.0,30.45,NNE,30,3.0,8.0,42,0.00,,,-99.99,,2013-01-14 01:32:00,
2013-01-13 17:42:00,18.0,-1.0,30.45,NNE,30,3.0,8.0,42,0.00,,,-99.99,,2013-01-14 01:42:00,
2013-01-13 18:22:00,18.0,3.0,30.46,NE,50,1.0,4.0,50,0.00,,,-99.99,,2013-01-14 02:22:00,
2013-01-13 18:32:00,18.0,3.0,30.46,NE,50,1.0,4.0,50,0.00,,,-99.99,,2013-01-14 02:32:00,
2013-01-13 18:42:00,18.0,3.0,30.46,NE,50,1.0,4.0,50,0.00,,,-99.99,,2013-01-14 02:42:00,
2013-01-13 19:22:00,12.0,-1.0,30.51,North,-999,0.0,0.0,54,0.00,,,-99.99,,2013-01-14 03:22:00,
2013-01-13 19:32:00,12.0,-1.0,30.51,North,-999,0.0,0.0,54,0.00,,,-99.99,,2013-01-14 03:32:00,
2013-01-13 19:42:00,12.0,-1.0,30.51,North,-999,0.0,0.0,54,0.00,,,-99.99,,2013-01-14 03:42:00,
2013-01-13 20:22:00,7.0,-4.0,30.49,North,0,0.0,1.0,61,0.00,,,-99.99,,2013-01-14 04:22:00,
2013-01-13 20:32:00,7.0,-4.0,30.49,North,0,0.0,1.0,61,0.00,,,-99.99,,2013-01-14 04:32:00,
2013-01-13 20:42:00,7.0,-4.0,30.49,North,0,0.0,1.0,61,0.00,,,-99.99,,2013-01-14 04:42:00,
2013-01-13 21:22:00,3.0,-6.0,30.41,North,0,0.0,1.0,66,0.00,,,-99.99,,2013-01-14 05:22:00,
2013-01-13 21:32:00,3.0,-6.0,30.41,North,0,0.0,1.0,66,0.00,,,-99.99,,2013-01-14 05:32:00,
2013-01-13 22:22:00,2.0,-6.0,30.36,North,0,0.0,1.0,68,0.00,,,-99.99,,2013-01-14 06:22:00,
2013-01-13 22:32:00,2.0,-6.0,30.36,North,0,0.0,1.0,68,0.00,,,-99.99,,2013-01-14 06:32:00,
2013-01-13 23:22:00,0.0,-7.0,30.39,North,0,0.0,2.0,70,0.00,,,-99.99,,2013-01-14 07:22:00,
2013-01-13 23:32:00,0.0,-7.0,30.39,North,0,0.0,2.0,70,0.00,,,-99.99,,2013-01-14 07:32:00,